sensor_id;sensor_type;location;lat;lon;timestamp;temperature;humidity
16505;HTU21D;8365;51.030;4.696;2023-04-15T00:02:17;10.62;105.88
16505;HTU21D;8365;51.030;4.696;2023-04-15T00:04:48;10.55;104.64
16505;HTU21D;8365;51.030;4.696;2023-04-15T00:07:19;10.74;104.40
16505;HTU21D;8365;51.030;4.696;2023-04-15T00:09:49;10.73;104.83
16505;HTU21D;8365;51.030;4.696;2023-04-15T00:12:24;10.87;104.73
16505;HTU21D;8365;51.030;4.696;2023-04-15T00:14:58;10.84;105.89
16505;HTU21D;8365;51.030;4.696;2023-04-15T00:17:29;10.74;107.99
16505;HTU21D;8365;51.030;4.696;2023-04-15T00:19:59;10.87;107.36
16505;HTU21D;8365;51.030;4.696;2023-04-15T00:22:30;10.84;108.36
16505;HTU21D;8365;51.030;4.696;2023-04-15T00:25:01;10.71;107.34
16505;HTU21D;8365;51.030;4.696;2023-04-15T00:27:33;10.72;106.03
16505;HTU21D;8365;51.030;4.696;2023-04-15T00:30:04;10.40;106.37
16505;HTU21D;8365;51.030;4.696;2023-04-15T00:32:35;9.95;109.63
16505;HTU21D;8365;51.030;4.696;2023-04-15T00:35:06;10.06;107.78
16505;HTU21D;8365;51.030;4.696;2023-04-15T00:37:36;10.37;105.80
16505;HTU21D;8365;51.030;4.696;2023-04-15T00:40:11;10.53;103.93
16505;HTU21D;8365;51.030;4.696;2023-04-15T00:42:42;10.50;103.88
16505;HTU21D;8365;51.030;4.696;2023-04-15T00:45:13;10.64;103.81
16505;HTU21D;8365;51.030;4.696;2023-04-15T00:47:44;10.60;103.50
16505;HTU21D;8365;51.030;4.696;2023-04-15T00:50:15;10.77;102.70
16505;HTU21D;8365;51.030;4.696;2023-04-15T00:52:45;10.87;102.05
16505;HTU21D;8365;51.030;4.696;2023-04-15T00:55:16;10.83;102.84
16505;HTU21D;8365;51.030;4.696;2023-04-15T00:57:47;10.93;102.64
16505;HTU21D;8365;51.030;4.696;2023-04-15T01:00:17;11.07;101.58
16505;HTU21D;8365;51.030;4.696;2023-04-15T01:02:50;11.17;101.36
16505;HTU21D;8365;51.030;4.696;2023-04-15T01:05:21;11.29;100.89
16505;HTU21D;8365;51.030;4.696;2023-04-15T01:07:51;11.36;100.94
16505;HTU21D;8365;51.030;4.696;2023-04-15T01:10:24;11.37;101.35
16505;HTU21D;8365;51.030;4.696;2023-04-15T01:12:55;11.44;101.77
16505;HTU21D;8365;51.030;4.696;2023-04-15T01:15:26;11.48;101.39
16505;HTU21D;8365;51.030;4.696;2023-04-15T01:17:58;11.49;101.90
16505;HTU21D;8365;51.030;4.696;2023-04-15T01:20:29;11.53;101.73
16505;HTU21D;8365;51.030;4.696;2023-04-15T01:22:59;11.45;101.85
16505;HTU21D;8365;51.030;4.696;2023-04-15T01:25:33;11.41;101.52
16505;HTU21D;8365;51.030;4.696;2023-04-15T01:28:04;11.57;101.02
16505;HTU21D;8365;51.030;4.696;2023-04-15T01:30:36;11.48;100.49
16505;HTU21D;8365;51.030;4.696;2023-04-15T01:33:07;11.25;100.03
16505;HTU21D;8365;51.030;4.696;2023-04-15T01:35:40;10.65;103.13
16505;HTU21D;8365;51.030;4.696;2023-04-15T01:38:10;10.74;102.90
16505;HTU21D;8365;51.030;4.696;2023-04-15T01:40:42;10.97;101.61
16505;HTU21D;8365;51.030;4.696;2023-04-15T01:43:13;11.18;100.82
16505;HTU21D;8365;51.030;4.696;2023-04-15T01:45:44;11.27;101.33
16505;HTU21D;8365;51.030;4.696;2023-04-15T01:48:17;11.36;100.77
16505;HTU21D;8365;51.030;4.696;2023-04-15T01:50:48;11.44;100.44
16505;HTU21D;8365;51.030;4.696;2023-04-15T01:53:18;11.45;100.23
16505;HTU21D;8365;51.030;4.696;2023-04-15T01:55:49;11.33;101.62
16505;HTU21D;8365;51.030;4.696;2023-04-15T01:58:19;11.10;104.85
16505;HTU21D;8365;51.030;4.696;2023-04-15T02:00:52;11.33;103.47
16505;HTU21D;8365;51.030;4.696;2023-04-15T02:03:24;11.27;104.81
16505;HTU21D;8365;51.030;4.696;2023-04-15T02:05:54;11.02;106.69
16505;HTU21D;8365;51.030;4.696;2023-04-15T02:08:25;10.88;108.24
16505;HTU21D;8365;51.030;4.696;2023-04-15T02:10:55;11.02;107.37
16505;HTU21D;8365;51.030;4.696;2023-04-15T02:13:26;11.01;106.76
16505;HTU21D;8365;51.030;4.696;2023-04-15T02:15:57;11.08;106.81
16505;HTU21D;8365;51.030;4.696;2023-04-15T02:18:28;11.10;106.08
16505;HTU21D;8365;51.030;4.696;2023-04-15T02:20:59;11.15;105.31
16505;HTU21D;8365;51.030;4.696;2023-04-15T02:23:29;11.03;104.86
16505;HTU21D;8365;51.030;4.696;2023-04-15T02:26:00;11.16;104.30
16505;HTU21D;8365;51.030;4.696;2023-04-15T02:28:30;11.24;102.73
16505;HTU21D;8365;51.030;4.696;2023-04-15T02:31:05;11.00;103.53
16505;HTU21D;8365;51.030;4.696;2023-04-15T02:33:37;10.96;103.54
16505;HTU21D;8365;51.030;4.696;2023-04-15T02:36:07;11.14;102.21
16505;HTU21D;8365;51.030;4.696;2023-04-15T02:38:41;11.16;101.35
16505;HTU21D;8365;51.030;4.696;2023-04-15T02:41:12;11.11;100.18
16505;HTU21D;8365;51.030;4.696;2023-04-15T02:43:42;11.17;99.65
16505;HTU21D;8365;51.030;4.696;2023-04-15T02:46:14;11.12;99.51
16505;HTU21D;8365;51.030;4.696;2023-04-15T02:48:48;11.20;98.67
16505;HTU21D;8365;51.030;4.696;2023-04-15T02:51:20;11.14;97.83
16505;HTU21D;8365;51.030;4.696;2023-04-15T02:53:50;11.13;99.01
16505;HTU21D;8365;51.030;4.696;2023-04-15T02:56:21;10.83;100.35
16505;HTU21D;8365;51.030;4.696;2023-04-15T02:58:52;11.18;99.57
16505;HTU21D;8365;51.030;4.696;2023-04-15T03:01:25;11.25;100.00
16505;HTU21D;8365;51.030;4.696;2023-04-15T03:03:56;11.23;100.35
16505;HTU21D;8365;51.030;4.696;2023-04-15T03:06:29;11.07;100.82
16505;HTU21D;8365;51.030;4.696;2023-04-15T03:09:00;11.24;100.15
16505;HTU21D;8365;51.030;4.696;2023-04-15T03:11:31;11.28;100.12
16505;HTU21D;8365;51.030;4.696;2023-04-15T03:14:08;11.02;100.54
16505;HTU21D;8365;51.030;4.696;2023-04-15T03:16:39;11.09;100.22
16505;HTU21D;8365;51.030;4.696;2023-04-15T03:19:09;11.16;100.02
16505;HTU21D;8365;51.030;4.696;2023-04-15T03:21:40;11.27;98.89
16505;HTU21D;8365;51.030;4.696;2023-04-15T03:24:13;11.29;98.27
16505;HTU21D;8365;51.030;4.696;2023-04-15T03:26:43;11.28;98.90
16505;HTU21D;8365;51.030;4.696;2023-04-15T03:29:14;11.36;98.57
16505;HTU21D;8365;51.030;4.696;2023-04-15T03:31:44;11.20;98.79
16505;HTU21D;8365;51.030;4.696;2023-04-15T03:34:15;11.16;99.65
16505;HTU21D;8365;51.030;4.696;2023-04-15T03:36:45;11.23;99.21
16505;HTU21D;8365;51.030;4.696;2023-04-15T03:39:16;11.09;99.58
16505;HTU21D;8365;51.030;4.696;2023-04-15T03:41:46;11.24;98.27
16505;HTU21D;8365;51.030;4.696;2023-04-15T03:44:17;11.31;97.98
16505;HTU21D;8365;51.030;4.696;2023-04-15T03:46:47;11.36;98.11
16505;HTU21D;8365;51.030;4.696;2023-04-15T03:49:18;11.37;98.18
16505;HTU21D;8365;51.030;4.696;2023-04-15T03:51:49;11.31;99.55
16505;HTU21D;8365;51.030;4.696;2023-04-15T03:54:19;11.28;99.93
16505;HTU21D;8365;51.030;4.696;2023-04-15T03:56:50;11.24;100.12
16505;HTU21D;8365;51.030;4.696;2023-04-15T03:59:21;10.90;99.74
16505;HTU21D;8365;51.030;4.696;2023-04-15T04:01:51;11.04;99.49
16505;HTU21D;8365;51.030;4.696;2023-04-15T04:04:22;11.10;100.00
16505;HTU21D;8365;51.030;4.696;2023-04-15T04:06:52;11.15;99.78
16505;HTU21D;8365;51.030;4.696;2023-04-15T04:09:23;10.90;100.00
16505;HTU21D;8365;51.030;4.696;2023-04-15T04:11:53;11.04;99.86
16505;HTU21D;8365;51.030;4.696;2023-04-15T04:14:24;11.10;99.91
16505;HTU21D;8365;51.030;4.696;2023-04-15T04:16:58;11.15;99.60
16505;HTU21D;8365;51.030;4.696;2023-04-15T04:19:29;11.25;100.00
16505;HTU21D;8365;51.030;4.696;2023-04-15T04:22:00;11.25;100.37
16505;HTU21D;8365;51.030;4.696;2023-04-15T04:24:30;11.23;100.45
16505;HTU21D;8365;51.030;4.696;2023-04-15T04:27:01;11.25;100.79
16505;HTU21D;8365;51.030;4.696;2023-04-15T04:29:33;11.18;101.12
16505;HTU21D;8365;51.030;4.696;2023-04-15T04:32:03;11.17;101.47
16505;HTU21D;8365;51.030;4.696;2023-04-15T04:34:34;11.22;101.84
16505;HTU21D;8365;51.030;4.696;2023-04-15T04:37:04;10.93;103.68
16505;HTU21D;8365;51.030;4.696;2023-04-15T04:39:36;11.17;101.15
16505;HTU21D;8365;51.030;4.696;2023-04-15T04:42:06;11.17;100.67
16505;HTU21D;8365;51.030;4.696;2023-04-15T04:44:37;11.15;100.87
16505;HTU21D;8365;51.030;4.696;2023-04-15T04:47:07;11.24;100.46
16505;HTU21D;8365;51.030;4.696;2023-04-15T04:49:38;11.04;102.19
16505;HTU21D;8365;51.030;4.696;2023-04-15T04:52:08;10.92;101.95
16505;HTU21D;8365;51.030;4.696;2023-04-15T04:54:41;10.85;102.35
16505;HTU21D;8365;51.030;4.696;2023-04-15T04:57:12;10.96;101.08
16505;HTU21D;8365;51.030;4.696;2023-04-15T04:59:42;10.82;101.32
16505;HTU21D;8365;51.030;4.696;2023-04-15T05:02:13;10.88;100.99
16505;HTU21D;8365;51.030;4.696;2023-04-15T05:04:45;11.04;99.55
16505;HTU21D;8365;51.030;4.696;2023-04-15T05:07:15;11.05;99.35
16505;HTU21D;8365;51.030;4.696;2023-04-15T05:09:46;11.13;98.78
16505;HTU21D;8365;51.030;4.696;2023-04-15T05:12:16;11.11;98.90
16505;HTU21D;8365;51.030;4.696;2023-04-15T05:14:47;10.97;98.53
16505;HTU21D;8365;51.030;4.696;2023-04-15T05:17:17;11.07;98.15
16505;HTU21D;8365;51.030;4.696;2023-04-15T05:19:48;11.01;98.27
16505;HTU21D;8365;51.030;4.696;2023-04-15T05:22:19;11.01;98.33
16505;HTU21D;8365;51.030;4.696;2023-04-15T05:24:49;10.90;99.21
16505;HTU21D;8365;51.030;4.696;2023-04-15T05:27:20;10.86;99.95
16505;HTU21D;8365;51.030;4.696;2023-04-15T05:29:53;10.93;99.55
16505;HTU21D;8365;51.030;4.696;2023-04-15T05:32:24;11.17;97.43
16505;HTU21D;8365;51.030;4.696;2023-04-15T05:34:55;11.19;97.89
16505;HTU21D;8365;51.030;4.696;2023-04-15T05:37:25;11.25;97.58
16505;HTU21D;8365;51.030;4.696;2023-04-15T05:39:55;11.45;96.20
16505;HTU21D;8365;51.030;4.696;2023-04-15T05:42:27;11.54;96.19
16505;HTU21D;8365;51.030;4.696;2023-04-15T05:45:00;11.51;96.45
16505;HTU21D;8365;51.030;4.696;2023-04-15T05:47:30;11.59;95.75
16505;HTU21D;8365;51.030;4.696;2023-04-15T05:50:01;11.42;96.49
16505;HTU21D;8365;51.030;4.696;2023-04-15T05:52:32;11.39;96.44
16505;HTU21D;8365;51.030;4.696;2023-04-15T05:55:03;11.37;96.26
16505;HTU21D;8365;51.030;4.696;2023-04-15T05:57:33;11.40;95.66
16505;HTU21D;8365;51.030;4.696;2023-04-15T06:00:04;11.28;95.91
16505;HTU21D;8365;51.030;4.696;2023-04-15T06:02:35;11.49;95.46
16505;HTU21D;8365;51.030;4.696;2023-04-15T06:05:06;11.49;96.15
16505;HTU21D;8365;51.030;4.696;2023-04-15T06:07:38;11.49;95.58
16505;HTU21D;8365;51.030;4.696;2023-04-15T06:10:10;11.67;95.21
16505;HTU21D;8365;51.030;4.696;2023-04-15T06:12:41;11.82;94.46
16505;HTU21D;8365;51.030;4.696;2023-04-15T06:15:11;11.79;94.48
16505;HTU21D;8365;51.030;4.696;2023-04-15T06:17:44;11.86;94.01
16505;HTU21D;8365;51.030;4.696;2023-04-15T06:20:14;11.73;93.72
16505;HTU21D;8365;51.030;4.696;2023-04-15T06:22:47;11.69;94.39
16505;HTU21D;8365;51.030;4.696;2023-04-15T06:25:18;11.84;94.52
16505;HTU21D;8365;51.030;4.696;2023-04-15T06:27:48;11.85;93.51
16505;HTU21D;8365;51.030;4.696;2023-04-15T06:30:19;11.73;94.04
16505;HTU21D;8365;51.030;4.696;2023-04-15T06:32:49;11.85;93.59
16505;HTU21D;8365;51.030;4.696;2023-04-15T06:35:22;12.01;93.25
16505;HTU21D;8365;51.030;4.696;2023-04-15T06:37:53;12.05;92.85
16505;HTU21D;8365;51.030;4.696;2023-04-15T06:40:23;12.14;91.95
16505;HTU21D;8365;51.030;4.696;2023-04-15T06:42:54;12.07;91.72
16505;HTU21D;8365;51.030;4.696;2023-04-15T06:45:24;12.16;91.59
16505;HTU21D;8365;51.030;4.696;2023-04-15T06:47:58;12.38;91.45
16505;HTU21D;8365;51.030;4.696;2023-04-15T06:50:28;12.33;91.28
16505;HTU21D;8365;51.030;4.696;2023-04-15T06:53:01;12.23;91.77
16505;HTU21D;8365;51.030;4.696;2023-04-15T06:55:33;12.32;91.73
16505;HTU21D;8365;51.030;4.696;2023-04-15T06:58:03;12.50;90.47
16505;HTU21D;8365;51.030;4.696;2023-04-15T07:00:34;12.62;91.21
16505;HTU21D;8365;51.030;4.696;2023-04-15T07:03:08;12.49;90.71
16505;HTU21D;8365;51.030;4.696;2023-04-15T07:05:40;12.48;91.51
16505;HTU21D;8365;51.030;4.696;2023-04-15T07:08:11;12.84;90.66
16505;HTU21D;8365;51.030;4.696;2023-04-15T07:10:41;13.04;90.60
16505;HTU21D;8365;51.030;4.696;2023-04-15T07:13:12;13.21;88.49
16505;HTU21D;8365;51.030;4.696;2023-04-15T07:15:43;13.37;88.67
16505;HTU21D;8365;51.030;4.696;2023-04-15T07:18:15;13.34;86.94
16505;HTU21D;8365;51.030;4.696;2023-04-15T07:20:46;13.49;85.36
16505;HTU21D;8365;51.030;4.696;2023-04-15T07:23:17;13.53;85.81
16505;HTU21D;8365;51.030;4.696;2023-04-15T07:25:47;13.62;83.88
16505;HTU21D;8365;51.030;4.696;2023-04-15T07:28:18;13.90;85.00
16505;HTU21D;8365;51.030;4.696;2023-04-15T07:30:48;14.00;82.55
16505;HTU21D;8365;51.030;4.696;2023-04-15T07:33:19;14.05;79.22
16505;HTU21D;8365;51.030;4.696;2023-04-15T07:35:50;13.74;79.77
16505;HTU21D;8365;51.030;4.696;2023-04-15T07:38:20;13.86;80.85
16505;HTU21D;8365;51.030;4.696;2023-04-15T07:40:51;13.79;79.95
16505;HTU21D;8365;51.030;4.696;2023-04-15T07:43:22;13.85;78.72
16505;HTU21D;8365;51.030;4.696;2023-04-15T07:45:52;14.01;79.75
16505;HTU21D;8365;51.030;4.696;2023-04-15T07:48:23;14.26;77.44
16505;HTU21D;8365;51.030;4.696;2023-04-15T07:50:54;14.41;76.95
16505;HTU21D;8365;51.030;4.696;2023-04-15T07:53:26;14.64;75.72
16505;HTU21D;8365;51.030;4.696;2023-04-15T07:55:57;14.60;76.92
16505;HTU21D;8365;51.030;4.696;2023-04-15T07:58:27;14.72;76.62
16505;HTU21D;8365;51.030;4.696;2023-04-15T08:00:58;14.82;74.29
16505;HTU21D;8365;51.030;4.696;2023-04-15T08:03:28;14.88;72.71
16505;HTU21D;8365;51.030;4.696;2023-04-15T08:05:59;14.91;72.92
16505;HTU21D;8365;51.030;4.696;2023-04-15T08:08:29;14.79;71.31
16505;HTU21D;8365;51.030;4.696;2023-04-15T08:11:00;14.99;71.92
16505;HTU21D;8365;51.030;4.696;2023-04-15T08:13:31;15.09;71.38
16505;HTU21D;8365;51.030;4.696;2023-04-15T08:18:51;15.19;71.57
16505;HTU21D;8365;51.030;4.696;2023-04-15T08:21:22;15.42;70.82
16505;HTU21D;8365;51.030;4.696;2023-04-15T08:23:56;15.34;70.86
16505;HTU21D;8365;51.030;4.696;2023-04-15T08:26:27;15.33;71.06
16505;HTU21D;8365;51.030;4.696;2023-04-15T08:28:58;15.38;71.35
16505;HTU21D;8365;51.030;4.696;2023-04-15T08:31:29;15.54;72.58
16505;HTU21D;8365;51.030;4.696;2023-04-15T08:34:02;15.62;71.79
16505;HTU21D;8365;51.030;4.696;2023-04-15T08:36:32;15.83;71.15
16505;HTU21D;8365;51.030;4.696;2023-04-15T08:39:03;15.82;70.16
16505;HTU21D;8365;51.030;4.696;2023-04-15T08:42:02;15.87;68.97
16505;HTU21D;8365;51.030;4.696;2023-04-15T08:44:34;15.84;68.97
16505;HTU21D;8365;51.030;4.696;2023-04-15T08:47:07;15.96;69.08
16505;HTU21D;8365;51.030;4.696;2023-04-15T08:49:41;15.97;69.95
16505;HTU21D;8365;51.030;4.696;2023-04-15T08:52:12;16.15;69.94
16505;HTU21D;8365;51.030;4.696;2023-04-15T08:54:43;16.20;68.28
16505;HTU21D;8365;51.030;4.696;2023-04-15T08:57:15;16.25;68.91
16505;HTU21D;8365;51.030;4.696;2023-04-15T08:59:46;16.35;68.28
16505;HTU21D;8365;51.030;4.696;2023-04-15T09:02:17;16.77;66.26
16505;HTU21D;8365;51.030;4.696;2023-04-15T09:04:48;17.20;63.79
16505;HTU21D;8365;51.030;4.696;2023-04-15T09:07:18;17.52;63.21
16505;HTU21D;8365;51.030;4.696;2023-04-15T09:09:49;18.11;61.22
16505;HTU21D;8365;51.030;4.696;2023-04-15T09:12:20;18.59;60.01
16505;HTU21D;8365;51.030;4.696;2023-04-15T09:14:51;19.28;57.42
16505;HTU21D;8365;51.030;4.696;2023-04-15T09:17:22;20.35;54.47
16505;HTU21D;8365;51.030;4.696;2023-04-15T09:20:09;20.53;51.18
16505;HTU21D;8365;51.030;4.696;2023-04-15T09:22:41;20.84;49.74
16505;HTU21D;8365;51.030;4.696;2023-04-15T09:27:54;21.67;46.99
16505;HTU21D;8365;51.030;4.696;2023-04-15T09:30:27;22.52;44.87
16505;HTU21D;8365;51.030;4.696;2023-04-15T09:32:59;22.81;44.32
16505;HTU21D;8365;51.030;4.696;2023-04-15T09:35:41;22.66;43.17
16505;HTU21D;8365;51.030;4.696;2023-04-15T09:38:14;22.87;42.48
16505;HTU21D;8365;51.030;4.696;2023-04-15T09:40:46;22.71;42.61
16505;HTU21D;8365;51.030;4.696;2023-04-15T09:43:16;23.55;41.52
16505;HTU21D;8365;51.030;4.696;2023-04-15T09:45:55;23.87;40.58
16505;HTU21D;8365;51.030;4.696;2023-04-15T09:48:27;23.55;41.86
16505;HTU21D;8365;51.030;4.696;2023-04-15T09:51:01;23.30;39.17
16505;HTU21D;8365;51.030;4.696;2023-04-15T09:53:53;23.77;38.78
16505;HTU21D;8365;51.030;4.696;2023-04-15T09:56:33;23.58;39.23
16505;HTU21D;8365;51.030;4.696;2023-04-15T09:59:05;25.16;36.88
16505;HTU21D;8365;51.030;4.696;2023-04-15T10:01:37;25.09;36.75
16505;HTU21D;8365;51.030;4.696;2023-04-15T10:04:10;24.50;35.06
16505;HTU21D;8365;51.030;4.696;2023-04-15T10:06:41;24.97;34.88
16505;HTU21D;8365;51.030;4.696;2023-04-15T10:09:12;25.33;34.13
16505;HTU21D;8365;51.030;4.696;2023-04-15T10:11:43;25.25;34.72
16505;HTU21D;8365;51.030;4.696;2023-04-15T10:14:14;25.89;33.69
16505;HTU21D;8365;51.030;4.696;2023-04-15T10:16:46;25.89;34.53
16505;HTU21D;8365;51.030;4.696;2023-04-15T10:19:23;25.78;34.23
16505;HTU21D;8365;51.030;4.696;2023-04-15T10:21:58;25.12;33.31
16505;HTU21D;8365;51.030;4.696;2023-04-15T10:24:31;24.03;32.96
16505;HTU21D;8365;51.030;4.696;2023-04-15T10:27:03;24.84;30.86
16505;HTU21D;8365;51.030;4.696;2023-04-15T10:29:35;24.24;30.51
16505;HTU21D;8365;51.030;4.696;2023-04-15T10:32:08;25.68;29.44
16505;HTU21D;8365;51.030;4.696;2023-04-15T10:34:40;24.88;29.69
16505;HTU21D;8365;51.030;4.696;2023-04-15T10:37:11;24.14;31.91
16505;HTU21D;8365;51.030;4.696;2023-04-15T10:39:42;24.61;32.89
16505;HTU21D;8365;51.030;4.696;2023-04-15T10:42:18;25.75;31.96
16505;HTU21D;8365;51.030;4.696;2023-04-15T10:44:50;25.14;31.42
16505;HTU21D;8365;51.030;4.696;2023-04-15T10:47:21;25.37;31.60
16505;HTU21D;8365;51.030;4.696;2023-04-15T10:49:57;25.13;30.61
16505;HTU21D;8365;51.030;4.696;2023-04-15T10:52:30;24.91;30.17
16505;HTU21D;8365;51.030;4.696;2023-04-15T10:57:39;25.25;30.03
16505;HTU21D;8365;51.030;4.696;2023-04-15T11:00:14;25.54;28.54
16505;HTU21D;8365;51.030;4.696;2023-04-15T11:08:13;26.69;28.40
16505;HTU21D;8365;51.030;4.696;2023-04-15T11:15:47;25.06;28.81
16505;HTU21D;8365;51.030;4.696;2023-04-15T11:18:26;24.92;27.68
16505;HTU21D;8365;51.030;4.696;2023-04-15T11:21:02;25.18;24.53
16505;HTU21D;8365;51.030;4.696;2023-04-15T11:23:41;26.69;24.40
16505;HTU21D;8365;51.030;4.696;2023-04-15T11:26:16;26.70;24.71
16505;HTU21D;8365;51.030;4.696;2023-04-15T11:28:46;26.66;25.70
16505;HTU21D;8365;51.030;4.696;2023-04-15T11:31:20;27.75;25.93
16505;HTU21D;8365;51.030;4.696;2023-04-15T11:33:58;27.85;25.52
16505;HTU21D;8365;51.030;4.696;2023-04-15T11:36:29;26.63;27.42
16505;HTU21D;8365;51.030;4.696;2023-04-15T11:39:01;25.67;28.16
16505;HTU21D;8365;51.030;4.696;2023-04-15T11:41:31;27.17;26.89
16505;HTU21D;8365;51.030;4.696;2023-04-15T11:44:02;26.61;26.98
16505;HTU21D;8365;51.030;4.696;2023-04-15T11:46:34;25.93;27.85
16505;HTU21D;8365;51.030;4.696;2023-04-15T11:49:04;25.98;27.18
16505;HTU21D;8365;51.030;4.696;2023-04-15T11:51:38;27.38;24.69
16505;HTU21D;8365;51.030;4.696;2023-04-15T11:54:08;27.25;24.87
16505;HTU21D;8365;51.030;4.696;2023-04-15T11:56:40;25.57;24.88
16505;HTU21D;8365;51.030;4.696;2023-04-15T11:59:10;23.51;25.61
16505;HTU21D;8365;51.030;4.696;2023-04-15T12:01:41;22.50;25.93
16505;HTU21D;8365;51.030;4.696;2023-04-15T12:04:17;24.63;24.67
16505;HTU21D;8365;51.030;4.696;2023-04-15T12:06:53;25.62;23.58
16505;HTU21D;8365;51.030;4.696;2023-04-15T12:09:24;25.81;23.08
16505;HTU21D;8365;51.030;4.696;2023-04-15T12:11:56;26.90;22.88
16505;HTU21D;8365;51.030;4.696;2023-04-15T12:14:30;27.43;22.67
16505;HTU21D;8365;51.030;4.696;2023-04-15T12:17:02;27.84;22.18
16505;HTU21D;8365;51.030;4.696;2023-04-15T12:19:39;27.89;21.93
16505;HTU21D;8365;51.030;4.696;2023-04-15T12:22:14;29.02;21.82
16505;HTU21D;8365;51.030;4.696;2023-04-15T12:24:45;28.14;22.08
16505;HTU21D;8365;51.030;4.696;2023-04-15T12:27:17;28.53;20.71
16505;HTU21D;8365;51.030;4.696;2023-04-15T12:29:48;25.83;24.22
16505;HTU21D;8365;51.030;4.696;2023-04-15T12:32:19;26.85;23.98
16505;HTU21D;8365;51.030;4.696;2023-04-15T12:34:51;27.94;23.40
16505;HTU21D;8365;51.030;4.696;2023-04-15T12:37:24;27.19;25.65
16505;HTU21D;8365;51.030;4.696;2023-04-15T12:39:55;26.83;25.41
16505;HTU21D;8365;51.030;4.696;2023-04-15T12:42:26;26.79;24.11
16505;HTU21D;8365;51.030;4.696;2023-04-15T12:44:57;26.46;24.53
16505;HTU21D;8365;51.030;4.696;2023-04-15T12:47:27;25.09;27.44
16505;HTU21D;8365;51.030;4.696;2023-04-15T12:49:58;27.09;24.53
16505;HTU21D;8365;51.030;4.696;2023-04-15T12:52:28;26.97;25.00
16505;HTU21D;8365;51.030;4.696;2023-04-15T12:55:00;25.81;26.09
16505;HTU21D;8365;51.030;4.696;2023-04-15T12:57:30;24.98;27.13
16505;HTU21D;8365;51.030;4.696;2023-04-15T13:00:01;25.68;25.80
16505;HTU21D;8365;51.030;4.696;2023-04-15T13:02:34;25.76;27.26
16505;HTU21D;8365;51.030;4.696;2023-04-15T13:05:05;26.23;26.97
16505;HTU21D;8365;51.030;4.696;2023-04-15T13:07:36;27.27;27.13
16505;HTU21D;8365;51.030;4.696;2023-04-15T13:10:07;26.52;27.35
16505;HTU21D;8365;51.030;4.696;2023-04-15T13:12:37;26.03;25.15
16505;HTU21D;8365;51.030;4.696;2023-04-15T13:15:08;26.54;26.30
16505;HTU21D;8365;51.030;4.696;2023-04-15T13:17:40;26.83;27.07
16505;HTU21D;8365;51.030;4.696;2023-04-15T13:20:11;26.32;26.29
16505;HTU21D;8365;51.030;4.696;2023-04-15T13:22:42;27.52;25.90
16505;HTU21D;8365;51.030;4.696;2023-04-15T13:25:13;27.26;25.65
16505;HTU21D;8365;51.030;4.696;2023-04-15T13:27:46;26.82;26.84
16505;HTU21D;8365;51.030;4.696;2023-04-15T13:30:17;26.64;29.69
16505;HTU21D;8365;51.030;4.696;2023-04-15T13:32:48;27.79;27.55
16505;HTU21D;8365;51.030;4.696;2023-04-15T13:35:20;27.56;27.01
16505;HTU21D;8365;51.030;4.696;2023-04-15T13:37:52;25.50;30.58
16505;HTU21D;8365;51.030;4.696;2023-04-15T13:40:23;25.56;29.46
16505;HTU21D;8365;51.030;4.696;2023-04-15T13:42:53;25.34;29.61
16505;HTU21D;8365;51.030;4.696;2023-04-15T13:45:26;25.84;28.87
16505;HTU21D;8365;51.030;4.696;2023-04-15T13:47:56;25.97;27.24
16505;HTU21D;8365;51.030;4.696;2023-04-15T13:50:27;25.66;30.29
16505;HTU21D;8365;51.030;4.696;2023-04-15T13:52:58;25.98;29.99
16505;HTU21D;8365;51.030;4.696;2023-04-15T13:55:28;25.24;29.97
16505;HTU21D;8365;51.030;4.696;2023-04-15T13:58:01;25.66;29.84
16505;HTU21D;8365;51.030;4.696;2023-04-15T14:00:31;25.28;30.01
16505;HTU21D;8365;51.030;4.696;2023-04-15T14:03:03;24.39;31.37
16505;HTU21D;8365;51.030;4.696;2023-04-15T14:05:34;25.22;31.25
16505;HTU21D;8365;51.030;4.696;2023-04-15T14:08:04;25.01;32.86
16505;HTU21D;8365;51.030;4.696;2023-04-15T14:10:35;25.24;31.03
16505;HTU21D;8365;51.030;4.696;2023-04-15T14:13:08;25.62;29.68
16505;HTU21D;8365;51.030;4.696;2023-04-15T14:15:38;25.90;29.42
16505;HTU21D;8365;51.030;4.696;2023-04-15T14:18:10;26.27;29.61
16505;HTU21D;8365;51.030;4.696;2023-04-15T14:20:41;23.64;32.43
16505;HTU21D;8365;51.030;4.696;2023-04-15T14:23:11;24.88;30.08
16505;HTU21D;8365;51.030;4.696;2023-04-15T14:25:42;24.75;30.16
16505;HTU21D;8365;51.030;4.696;2023-04-15T14:28:12;25.19;31.35
16505;HTU21D;8365;51.030;4.696;2023-04-15T14:30:43;26.34;29.52
16505;HTU21D;8365;51.030;4.696;2023-04-15T14:33:13;26.22;27.78
16505;HTU21D;8365;51.030;4.696;2023-04-15T14:35:46;26.55;27.87
16505;HTU21D;8365;51.030;4.696;2023-04-15T14:38:17;26.34;30.38
16505;HTU21D;8365;51.030;4.696;2023-04-15T14:40:47;26.55;30.51
16505;HTU21D;8365;51.030;4.696;2023-04-15T14:43:19;25.73;31.28
16505;HTU21D;8365;51.030;4.696;2023-04-15T14:45:52;25.97;31.06
16505;HTU21D;8365;51.030;4.696;2023-04-15T14:48:23;26.16;30.87
16505;HTU21D;8365;51.030;4.696;2023-04-15T14:50:56;25.71;29.96
16505;HTU21D;8365;51.030;4.696;2023-04-15T14:53:27;25.35;30.83
16505;HTU21D;8365;51.030;4.696;2023-04-15T14:55:57;25.52;30.19
16505;HTU21D;8365;51.030;4.696;2023-04-15T14:58:34;25.53;30.13
16505;HTU21D;8365;51.030;4.696;2023-04-15T15:01:05;25.65;30.43
16505;HTU21D;8365;51.030;4.696;2023-04-15T15:03:35;24.58;32.08
16505;HTU21D;8365;51.030;4.696;2023-04-15T15:06:07;25.58;31.86
16505;HTU21D;8365;51.030;4.696;2023-04-15T15:08:40;24.85;31.68
16505;HTU21D;8365;51.030;4.696;2023-04-15T15:11:13;25.31;30.12
16505;HTU21D;8365;51.030;4.696;2023-04-15T15:13:47;25.28;31.05
16505;HTU21D;8365;51.030;4.696;2023-04-15T15:16:18;24.89;31.88
16505;HTU21D;8365;51.030;4.696;2023-04-15T15:18:49;23.84;34.81
16505;HTU21D;8365;51.030;4.696;2023-04-15T15:21:25;24.35;33.05
16505;HTU21D;8365;51.030;4.696;2023-04-15T15:23:57;24.79;33.54
16505;HTU21D;8365;51.030;4.696;2023-04-15T15:26:27;24.44;33.44
16505;HTU21D;8365;51.030;4.696;2023-04-15T15:28:58;24.40;32.21
16505;HTU21D;8365;51.030;4.696;2023-04-15T15:31:28;24.88;31.93
16505;HTU21D;8365;51.030;4.696;2023-04-15T15:33:59;25.00;30.80
16505;HTU21D;8365;51.030;4.696;2023-04-15T15:36:30;24.51;32.09
16505;HTU21D;8365;51.030;4.696;2023-04-15T15:39:00;24.98;30.75
16505;HTU21D;8365;51.030;4.696;2023-04-15T15:41:33;25.14;31.43
16505;HTU21D;8365;51.030;4.696;2023-04-15T15:44:04;25.15;31.32
16505;HTU21D;8365;51.030;4.696;2023-04-15T15:46:35;24.05;32.82
16505;HTU21D;8365;51.030;4.696;2023-04-15T15:49:05;24.62;31.67
16505;HTU21D;8365;51.030;4.696;2023-04-15T15:51:36;24.69;33.22
16505;HTU21D;8365;51.030;4.696;2023-04-15T15:54:07;23.94;33.08
16505;HTU21D;8365;51.030;4.696;2023-04-15T15:56:38;24.11;34.33
16505;HTU21D;8365;51.030;4.696;2023-04-15T15:59:08;23.92;34.99
16505;HTU21D;8365;51.030;4.696;2023-04-15T16:01:39;24.11;33.52
16505;HTU21D;8365;51.030;4.696;2023-04-15T16:04:10;23.51;35.15
16505;HTU21D;8365;51.030;4.696;2023-04-15T16:06:42;23.17;35.76
16505;HTU21D;8365;51.030;4.696;2023-04-15T16:09:14;22.97;34.64
16505;HTU21D;8365;51.030;4.696;2023-04-15T16:11:45;22.31;35.51
16505;HTU21D;8365;51.030;4.696;2023-04-15T16:14:15;22.95;35.31